sensor_id;sensor_type;location;lat;lon;timestamp;P1;durP1;ratioP1;P2;durP2;ratioP2
17133;SDS011;8682;52.120;5.252;2022-07-23T00:00:19;165.70;;;78.40;;
17133;SDS011;8682;52.120;5.252;2022-07-23T00:02:48;188.10;;;74.73;;
17133;SDS011;8682;52.120;5.252;2022-07-23T00:05:15;142.20;;;88.17;;
17133;SDS011;8682;52.120;5.252;2022-07-23T00:07:42;154.40;;;78.43;;
17133;SDS011;8682;52.120;5.252;2022-07-23T00:10:09;142.47;;;74.83;;
17133;SDS011;8682;52.120;5.252;2022-07-23T00:12:36;145.43;;;71.60;;
17133;SDS011;8682;52.120;5.252;2022-07-23T00:15:04;165.83;;;76.87;;
17133;SDS011;8682;52.120;5.252;2022-07-23T00:17:32;177.17;;;75.17;;
17133;SDS011;8682;52.120;5.252;2022-07-23T00:20:00;152.47;;;80.67;;
17133;SDS011;8682;52.120;5.252;2022-07-23T00:22:27;131.10;;;77.83;;
17133;SDS011;8682;52.120;5.252;2022-07-23T00:24:55;162.27;;;67.30;;
17133;SDS011;8682;52.120;5.252;2022-07-23T00:27:22;168.47;;;79.77;;
17133;SDS011;8682;52.120;5.252;2022-07-23T00:29:49;183.30;;;75.40;;
17133;SDS011;8682;52.120;5.252;2022-07-23T00:32:16;175.83;;;78.37;;
17133;SDS011;8682;52.120;5.252;2022-07-23T00:34:44;163.50;;;70.37;;
17133;SDS011;8682;52.120;5.252;2022-07-23T00:37:12;143.77;;;73.70;;
17133;SDS011;8682;52.120;5.252;2022-07-23T00:39:39;139.07;;;66.63;;
17133;SDS011;8682;52.120;5.252;2022-07-23T00:42:06;167.90;;;75.47;;
17133;SDS011;8682;52.120;5.252;2022-07-23T00:44:33;172.87;;;86.80;;
17133;SDS011;8682;52.120;5.252;2022-07-23T00:47:01;126.70;;;70.83;;
17133;SDS011;8682;52.120;5.252;2022-07-23T00:49:29;140.03;;;77.77;;
17133;SDS011;8682;52.120;5.252;2022-07-23T00:51:57;139.33;;;74.40;;
17133;SDS011;8682;52.120;5.252;2022-07-23T00:54:29;120.23;;;67.97;;
17133;SDS011;8682;52.120;5.252;2022-07-23T00:56:56;136.47;;;71.60;;
17133;SDS011;8682;52.120;5.252;2022-07-23T00:59:23;131.20;;;66.33;;
17133;SDS011;8682;52.120;5.252;2022-07-23T01:01:50;143.40;;;71.80;;
17133;SDS011;8682;52.120;5.252;2022-07-23T01:04:17;131.60;;;72.93;;
17133;SDS011;8682;52.120;5.252;2022-07-23T01:06:44;134.13;;;71.53;;
17133;SDS011;8682;52.120;5.252;2022-07-23T01:09:12;132.07;;;74.50;;
17133;SDS011;8682;52.120;5.252;2022-07-23T01:11:40;140.07;;;74.97;;
17133;SDS011;8682;52.120;5.252;2022-07-23T01:14:08;130.60;;;72.43;;
17133;SDS011;8682;52.120;5.252;2022-07-23T01:16:35;122.17;;;67.33;;
17133;SDS011;8682;52.120;5.252;2022-07-23T01:19:03;114.63;;;61.13;;
17133;SDS011;8682;52.120;5.252;2022-07-23T01:21:31;140.80;;;72.23;;
17133;SDS011;8682;52.120;5.252;2022-07-23T01:24:00;137.93;;;68.00;;
17133;SDS011;8682;52.120;5.252;2022-07-23T01:26:27;115.67;;;76.07;;
17133;SDS011;8682;52.120;5.252;2022-07-23T01:28:54;135.83;;;70.77;;
17133;SDS011;8682;52.120;5.252;2022-07-23T01:31:21;120.13;;;71.97;;
17133;SDS011;8682;52.120;5.252;2022-07-23T01:33:49;145.73;;;89.10;;
17133;SDS011;8682;52.120;5.252;2022-07-23T01:36:16;128.40;;;71.90;;
17133;SDS011;8682;52.120;5.252;2022-07-23T01:38:43;128.87;;;73.13;;
17133;SDS011;8682;52.120;5.252;2022-07-23T01:41:12;140.70;;;71.67;;
17133;SDS011;8682;52.120;5.252;2022-07-23T01:43:39;126.53;;;69.13;;
17133;SDS011;8682;52.120;5.252;2022-07-23T01:46:06;140.50;;;78.13;;
17133;SDS011;8682;52.120;5.252;2022-07-23T01:48:33;142.80;;;84.83;;
17133;SDS011;8682;52.120;5.252;2022-07-23T01:51:00;147.73;;;84.63;;
17133;SDS011;8682;52.120;5.252;2022-07-23T01:53:27;172.23;;;88.53;;
17133;SDS011;8682;52.120;5.252;2022-07-23T01:55:56;214.83;;;117.07;;
17133;SDS011;8682;52.120;5.252;2022-07-23T01:58:24;176.17;;;86.67;;
17133;SDS011;8682;52.120;5.252;2022-07-23T02:00:52;152.57;;;91.43;;
17133;SDS011;8682;52.120;5.252;2022-07-23T02:03:19;149.23;;;78.90;;
17133;SDS011;8682;52.120;5.252;2022-07-23T02:05:46;125.97;;;75.27;;
17133;SDS011;8682;52.120;5.252;2022-07-23T02:08:13;159.23;;;93.77;;
17133;SDS011;8682;52.120;5.252;2022-07-23T02:10:41;147.93;;;88.23;;
17133;SDS011;8682;52.120;5.252;2022-07-23T02:13:08;137.37;;;91.63;;
17133;SDS011;8682;52.120;5.252;2022-07-23T02:15:36;133.00;;;82.00;;
17133;SDS011;8682;52.120;5.252;2022-07-23T02:18:04;135.17;;;77.73;;
17133;SDS011;8682;52.120;5.252;2022-07-23T02:20:31;128.13;;;72.33;;
17133;SDS011;8682;52.120;5.252;2022-07-23T02:22:58;150.53;;;81.93;;
17133;SDS011;8682;52.120;5.252;2022-07-23T02:25:25;118.20;;;77.13;;
17133;SDS011;8682;52.120;5.252;2022-07-23T02:27:53;149.77;;;88.23;;
17133;SDS011;8682;52.120;5.252;2022-07-23T02:30:20;119.77;;;73.57;;
17133;SDS011;8682;52.120;5.252;2022-07-23T02:32:48;138.07;;;76.40;;
17133;SDS011;8682;52.120;5.252;2022-07-23T02:35:15;146.00;;;85.93;;
17133;SDS011;8682;52.120;5.252;2022-07-23T02:37:42;151.83;;;86.50;;
17133;SDS011;8682;52.120;5.252;2022-07-23T02:40:10;139.63;;;78.50;;
17133;SDS011;8682;52.120;5.252;2022-07-23T02:42:37;146.03;;;93.97;;
17133;SDS011;8682;52.120;5.252;2022-07-23T02:45:06;167.50;;;95.77;;
17133;SDS011;8682;52.120;5.252;2022-07-23T02:47:33;128.53;;;71.10;;
17133;SDS011;8682;52.120;5.252;2022-07-23T02:50:02;173.97;;;102.10;;
17133;SDS011;8682;52.120;5.252;2022-07-23T02:52:30;129.47;;;78.53;;
17133;SDS011;8682;52.120;5.252;2022-07-23T02:54:57;110.73;;;69.37;;
17133;SDS011;8682;52.120;5.252;2022-07-23T02:57:24;117.30;;;73.03;;
17133;SDS011;8682;52.120;5.252;2022-07-23T02:59:51;121.67;;;82.83;;
17133;SDS011;8682;52.120;5.252;2022-07-23T03:02:18;132.40;;;84.17;;
17133;SDS011;8682;52.120;5.252;2022-07-23T03:04:46;117.53;;;82.13;;
17133;SDS011;8682;52.120;5.252;2022-07-23T03:07:15;121.17;;;75.37;;
17133;SDS011;8682;52.120;5.252;2022-07-23T03:09:42;149.10;;;93.60;;
17133;SDS011;8682;52.120;5.252;2022-07-23T03:12:09;159.73;;;96.07;;
17133;SDS011;8682;52.120;5.252;2022-07-23T03:14:36;141.13;;;80.97;;
17133;SDS011;8682;52.120;5.252;2022-07-23T03:17:04;148.93;;;87.53;;
17133;SDS011;8682;52.120;5.252;2022-07-23T03:19:31;149.67;;;86.77;;
17133;SDS011;8682;52.120;5.252;2022-07-23T03:21:58;147.77;;;90.67;;
17133;SDS011;8682;52.120;5.252;2022-07-23T03:24:26;135.80;;;81.43;;
17133;SDS011;8682;52.120;5.252;2022-07-23T03:27:14;142.33;;;97.70;;
17133;SDS011;8682;52.120;5.252;2022-07-23T03:29:41;131.50;;;81.77;;
17133;SDS011;8682;52.120;5.252;2022-07-23T03:32:08;127.10;;;83.23;;
17133;SDS011;8682;52.120;5.252;2022-07-23T03:34:36;127.27;;;89.00;;
17133;SDS011;8682;52.120;5.252;2022-07-23T03:37:03;122.60;;;77.70;;
17133;SDS011;8682;52.120;5.252;2022-07-23T03:39:31;141.97;;;89.57;;
17133;SDS011;8682;52.120;5.252;2022-07-23T03:41:58;132.83;;;83.83;;
17133;SDS011;8682;52.120;5.252;2022-07-23T03:44:25;137.90;;;87.73;;
17133;SDS011;8682;52.120;5.252;2022-07-23T03:46:53;143.43;;;97.60;;
17133;SDS011;8682;52.120;5.252;2022-07-23T03:49:20;196.00;;;115.87;;
17133;SDS011;8682;52.120;5.252;2022-07-23T03:51:47;197.37;;;121.30;;
17133;SDS011;8682;52.120;5.252;2022-07-23T03:54:14;227.30;;;125.03;;
17133;SDS011;8682;52.120;5.252;2022-07-23T03:56:42;155.80;;;99.87;;
17133;SDS011;8682;52.120;5.252;2022-07-23T03:59:10;127.03;;;95.67;;
17133;SDS011;8682;52.120;5.252;2022-07-23T04:01:37;162.40;;;102.97;;
17133;SDS011;8682;52.120;5.252;2022-07-23T04:04:04;240.87;;;136.87;;
17133;SDS011;8682;52.120;5.252;2022-07-23T04:06:33;152.50;;;96.33;;
17133;SDS011;8682;52.120;5.252;2022-07-23T04:09:00;7.75;;;7.28;;
17133;SDS011;8682;52.120;5.252;2022-07-23T04:11:27;120.73;;;72.17;;
17133;SDS011;8682;52.120;5.252;2022-07-23T04:13:56;152.57;;;92.47;;
17133;SDS011;8682;52.120;5.252;2022-07-23T04:16:23;122.90;;;76.23;;
17133;SDS011;8682;52.120;5.252;2022-07-23T04:18:50;142.23;;;82.57;;
17133;SDS011;8682;52.120;5.252;2022-07-23T04:21:17;122.40;;;78.47;;
17133;SDS011;8682;52.120;5.252;2022-07-23T04:23:44;137.30;;;83.93;;
17133;SDS011;8682;52.120;5.252;2022-07-23T04:26:11;123.83;;;78.07;;
17133;SDS011;8682;52.120;5.252;2022-07-23T04:28:39;134.27;;;82.00;;
17133;SDS011;8682;52.120;5.252;2022-07-23T04:31:07;132.40;;;78.53;;
17133;SDS011;8682;52.120;5.252;2022-07-23T04:33:34;144.60;;;92.20;;
17133;SDS011;8682;52.120;5.252;2022-07-23T04:36:01;142.50;;;80.10;;
17133;SDS011;8682;52.120;5.252;2022-07-23T04:38:28;113.47;;;71.80;;
17133;SDS011;8682;52.120;5.252;2022-07-23T04:40:57;134.90;;;81.10;;
17133;SDS011;8682;52.120;5.252;2022-07-23T04:43:24;126.90;;;66.43;;
17133;SDS011;8682;52.120;5.252;2022-07-23T04:45:52;113.10;;;62.63;;
17133;SDS011;8682;52.120;5.252;2022-07-23T04:48:20;133.60;;;83.33;;
17133;SDS011;8682;52.120;5.252;2022-07-23T04:50:47;136.07;;;101.70;;
17133;SDS011;8682;52.120;5.252;2022-07-23T04:53:14;152.77;;;99.30;;
17133;SDS011;8682;52.120;5.252;2022-07-23T04:55:43;142.93;;;96.80;;
17133;SDS011;8682;52.120;5.252;2022-07-23T04:58:10;149.70;;;101.13;;
17133;SDS011;8682;52.120;5.252;2022-07-23T05:00:37;179.43;;;107.67;;
17133;SDS011;8682;52.120;5.252;2022-07-23T05:03:05;156.73;;;100.27;;
17133;SDS011;8682;52.120;5.252;2022-07-23T05:05:33;171.27;;;107.63;;
17133;SDS011;8682;52.120;5.252;2022-07-23T05:08:01;151.70;;;95.70;;
17133;SDS011;8682;52.120;5.252;2022-07-23T05:10:28;147.27;;;102.53;;
17133;SDS011;8682;52.120;5.252;2022-07-23T05:12:55;156.53;;;108.87;;
17133;SDS011;8682;52.120;5.252;2022-07-23T05:15:22;133.13;;;84.87;;
17133;SDS011;8682;52.120;5.252;2022-07-23T05:17:49;135.33;;;94.43;;
17133;SDS011;8682;52.120;5.252;2022-07-23T05:20:17;122.80;;;75.63;;
17133;SDS011;8682;52.120;5.252;2022-07-23T05:22:45;123.93;;;80.67;;
17133;SDS011;8682;52.120;5.252;2022-07-23T05:25:12;129.20;;;79.53;;
17133;SDS011;8682;52.120;5.252;2022-07-23T05:27:39;122.43;;;88.63;;
17133;SDS011;8682;52.120;5.252;2022-07-23T05:30:07;105.90;;;67.37;;
17133;SDS011;8682;52.120;5.252;2022-07-23T05:32:34;125.73;;;79.20;;
17133;SDS011;8682;52.120;5.252;2022-07-23T05:35:02;118.17;;;69.33;;
17133;SDS011;8682;52.120;5.252;2022-07-23T05:37:29;120.80;;;79.20;;
17133;SDS011;8682;52.120;5.252;2022-07-23T05:40:00;114.00;;;72.17;;
17133;SDS011;8682;52.120;5.252;2022-07-23T05:42:28;130.60;;;82.57;;
17133;SDS011;8682;52.120;5.252;2022-07-23T05:44:55;139.80;;;81.17;;
17133;SDS011;8682;52.120;5.252;2022-07-23T05:47:22;144.83;;;87.00;;
17133;SDS011;8682;52.120;5.252;2022-07-23T05:49:49;114.97;;;66.50;;
17133;SDS011;8682;52.120;5.252;2022-07-23T05:52:16;122.17;;;69.33;;
17133;SDS011;8682;52.120;5.252;2022-07-23T05:54:43;132.87;;;82.37;;
17133;SDS011;8682;52.120;5.252;2022-07-23T05:57:12;124.63;;;73.87;;
17133;SDS011;8682;52.120;5.252;2022-07-23T05:59:39;95.50;;;53.63;;
17133;SDS011;8682;52.120;5.252;2022-07-23T06:02:06;115.50;;;87.77;;
17133;SDS011;8682;52.120;5.252;2022-07-23T06:04:33;1999.90;;;999.90;;
17133;SDS011;8682;52.120;5.252;2022-07-23T06:07:01;1999.90;;;999.90;;
17133;SDS011;8682;52.120;5.252;2022-07-23T06:09:28;1999.90;;;999.90;;
17133;SDS011;8682;52.120;5.252;2022-07-23T06:11:55;1999.90;;;999.90;;
17133;SDS011;8682;52.120;5.252;2022-07-23T06:14:23;1999.90;;;999.90;;
17133;SDS011;8682;52.120;5.252;2022-07-23T06:16:50;1999.90;;;999.90;;
17133;SDS011;8682;52.120;5.252;2022-07-23T06:19:17;1999.90;;;999.90;;
17133;SDS011;8682;52.120;5.252;2022-07-23T06:21:44;1999.90;;;999.90;;
17133;SDS011;8682;52.120;5.252;2022-07-23T06:24:12;1999.90;;;999.90;;
17133;SDS011;8682;52.120;5.252;2022-07-23T06:26:39;1999.90;;;999.90;;
17133;SDS011;8682;52.120;5.252;2022-07-23T06:29:06;1999.90;;;999.90;;
17133;SDS011;8682;52.120;5.252;2022-07-23T06:31:35;1999.90;;;999.90;;
17133;SDS011;8682;52.120;5.252;2022-07-23T06:34:02;1999.90;;;999.90;;
17133;SDS011;8682;52.120;5.252;2022-07-23T06:36:29;1999.90;;;999.90;;
17133;SDS011;8682;52.120;5.252;2022-07-23T06:38:56;1999.90;;;999.90;;
17133;SDS011;8682;52.120;5.252;2022-07-23T06:41:23;1662.32;;;575.95;;
17133;SDS011;8682;52.120;5.252;2022-07-23T06:43:50;1999.90;;;999.90;;
17133;SDS011;8682;52.120;5.252;2022-07-23T06:46:17;1999.90;;;999.90;;
17133;SDS011;8682;52.120;5.252;2022-07-23T06:48:47;1999.90;;;999.90;;
17133;SDS011;8682;52.120;5.252;2022-07-23T06:51:14;1999.90;;;999.90;;
17133;SDS011;8682;52.120;5.252;2022-07-23T06:53:41;1999.90;;;999.90;;
17133;SDS011;8682;52.120;5.252;2022-07-23T06:56:08;1999.90;;;999.90;;
17133;SDS011;8682;52.120;5.252;2022-07-23T06:58:35;1999.90;;;999.90;;
17133;SDS011;8682;52.120;5.252;2022-07-23T07:01:03;1999.90;;;999.90;;
17133;SDS011;8682;52.120;5.252;2022-07-23T07:03:30;1999.90;;;999.90;;
17133;SDS011;8682;52.120;5.252;2022-07-23T07:05:58;1999.90;;;999.90;;
17133;SDS011;8682;52.120;5.252;2022-07-23T07:08:26;1999.90;;;999.90;;
17133;SDS011;8682;52.120;5.252;2022-07-23T07:10:53;1999.90;;;999.90;;
17133;SDS011;8682;52.120;5.252;2022-07-23T07:13:20;1999.90;;;999.90;;
17133;SDS011;8682;52.120;5.252;2022-07-23T07:15:47;1999.90;;;999.90;;
17133;SDS011;8682;52.120;5.252;2022-07-23T07:18:14;1999.90;;;999.90;;
17133;SDS011;8682;52.120;5.252;2022-07-23T07:20:42;1999.90;;;999.90;;
17133;SDS011;8682;52.120;5.252;2022-07-23T07:23:10;1999.90;;;766.80;;
17133;SDS011;8682;52.120;5.252;2022-07-23T07:25:37;1999.90;;;999.90;;
17133;SDS011;8682;52.120;5.252;2022-07-23T07:28:04;1999.90;;;999.90;;
17133;SDS011;8682;52.120;5.252;2022-07-23T07:30:31;1999.90;;;999.90;;
17133;SDS011;8682;52.120;5.252;2022-07-23T07:32:58;1999.90;;;999.90;;
17133;SDS011;8682;52.120;5.252;2022-07-23T07:35:25;1999.90;;;999.90;;
17133;SDS011;8682;52.120;5.252;2022-07-23T07:37:53;1999.90;;;999.90;;
17133;SDS011;8682;52.120;5.252;2022-07-23T07:40:21;1450.97;;;999.90;;
17133;SDS011;8682;52.120;5.252;2022-07-23T07:42:49;1999.90;;;999.90;;
17133;SDS011;8682;52.120;5.252;2022-07-23T07:45:17;1999.90;;;999.90;;
17133;SDS011;8682;52.120;5.252;2022-07-23T07:47:44;1999.90;;;999.90;;
17133;SDS011;8682;52.120;5.252;2022-07-23T07:50:11;1730.25;;;999.90;;
17133;SDS011;8682;52.120;5.252;2022-07-23T07:52:38;1999.90;;;999.90;;
17133;SDS011;8682;52.120;5.252;2022-07-23T07:55:06;1999.90;;;999.90;;
17133;SDS011;8682;52.120;5.252;2022-07-23T07:57:36;1999.90;;;999.90;;
17133;SDS011;8682;52.120;5.252;2022-07-23T08:00:03;1999.90;;;999.90;;
17133;SDS011;8682;52.120;5.252;2022-07-23T08:02:38;1999.90;;;999.90;;
17133;SDS011;8682;52.120;5.252;2022-07-23T08:05:06;1890.22;;;838.08;;
17133;SDS011;8682;52.120;5.252;2022-07-23T08:07:33;1999.90;;;994.47;;
17133;SDS011;8682;52.120;5.252;2022-07-23T08:10:00;1999.90;;;999.90;;
17133;SDS011;8682;52.120;5.252;2022-07-23T08:12:27;1999.90;;;999.90;;
17133;SDS011;8682;52.120;5.252;2022-07-23T08:14:56;1999.90;;;999.90;;
17133;SDS011;8682;52.120;5.252;2022-07-23T08:17:23;1999.90;;;999.90;;
17133;SDS011;8682;52.120;5.252;2022-07-23T08:19:50;1999.90;;;999.90;;
17133;SDS011;8682;52.120;5.252;2022-07-23T08:22:17;1999.90;;;999.90;;
17133;SDS011;8682;52.120;5.252;2022-07-23T08:24:44;1999.90;;;999.90;;
17133;SDS011;8682;52.120;5.252;2022-07-23T08:27:11;1999.90;;;999.90;;
17133;SDS011;8682;52.120;5.252;2022-07-23T08:29:38;1791.13;;;999.90;;
17133;SDS011;8682;52.120;5.252;2022-07-23T08:32:07;1652.05;;;999.90;;
17133;SDS011;8682;52.120;5.252;2022-07-23T08:34:34;1995.90;;;999.90;;
17133;SDS011;8682;52.120;5.252;2022-07-23T08:37:01;1999.90;;;999.90;;
17133;SDS011;8682;52.120;5.252;2022-07-23T08:39:28;1999.90;;;999.90;;
17133;SDS011;8682;52.120;5.252;2022-07-23T08:41:55;1794.78;;;999.90;;
17133;SDS011;8682;52.120;5.252;2022-07-23T08:44:22;1999.90;;;999.90;;
17133;SDS011;8682;52.120;5.252;2022-07-23T08:46:50;1455.53;;;950.65;;
17133;SDS011;8682;52.120;5.252;2022-07-23T08:49:19;1586.18;;;999.90;;
17133;SDS011;8682;52.120;5.252;2022-07-23T08:51:47;1501.00;;;980.55;;
17133;SDS011;8682;52.120;5.252;2022-07-23T08:54:14;1377.65;;;953.35;;
17133;SDS011;8682;52.120;5.252;2022-07-23T08:56:41;1408.80;;;978.75;;
17133;SDS011;8682;52.120;5.252;2022-07-23T08:59:08;1998.22;;;999.90;;
17133;SDS011;8682;52.120;5.252;2022-07-23T09:01:38;1999.90;;;999.90;;
17133;SDS011;8682;52.120;5.252;2022-07-23T09:04:05;1999.90;;;999.90;;
17133;SDS011;8682;52.120;5.252;2022-07-23T09:06:34;1999.90;;;999.90;;
17133;SDS011;8682;52.120;5.252;2022-07-23T09:09:16;1999.90;;;999.90;;
17133;SDS011;8682;52.120;5.252;2022-07-23T09:11:45;1999.90;;;999.90;;
17133;SDS011;8682;52.120;5.252;2022-07-23T09:14:12;1616.65;;;999.90;;
17133;SDS011;8682;52.120;5.252;2022-07-23T09:16:39;1999.90;;;999.90;;
17133;SDS011;8682;52.120;5.252;2022-07-23T09:19:09;1999.90;;;999.90;;
17133;SDS011;8682;52.120;5.252;2022-07-23T09:21:38;1999.90;;;999.90;;
17133;SDS011;8682;52.120;5.252;2022-07-23T09:24:06;1999.90;;;999.90;;
17133;SDS011;8682;52.120;5.252;2022-07-23T09:26:34;1999.90;;;999.90;;
17133;SDS011;8682;52.120;5.252;2022-07-23T09:29:03;1999.90;;;999.90;;
17133;SDS011;8682;52.120;5.252;2022-07-23T09:31:31;1999.90;;;999.90;;
17133;SDS011;8682;52.120;5.252;2022-07-23T09:34:09;1999.90;;;999.90;;
17133;SDS011;8682;52.120;5.252;2022-07-23T09:36:36;1999.90;;;999.90;;
17133;SDS011;8682;52.120;5.252;2022-07-23T09:39:05;1956.18;;;999.90;;
17133;SDS011;8682;52.120;5.252;2022-07-23T09:41:36;1999.90;;;999.90;;
17133;SDS011;8682;52.120;5.252;2022-07-23T09:44:11;1999.90;;;999.90;;
17133;SDS011;8682;52.120;5.252;2022-07-23T09:46:38;1999.90;;;999.90;;
17133;SDS011;8682;52.120;5.252;2022-07-23T09:49:11;1999.90;;;999.90;;
17133;SDS011;8682;52.120;5.252;2022-07-23T09:51:43;1999.90;;;999.90;;
17133;SDS011;8682;52.120;5.252;2022-07-23T09:54:20;1999.90;;;999.90;;
17133;SDS011;8682;52.120;5.252;2022-07-23T09:56:48;1999.90;;;999.90;;
17133;SDS011;8682;52.120;5.252;2022-07-23T09:59:15;1999.90;;;999.90;;
17133;SDS011;8682;52.120;5.252;2022-07-23T10:01:43;1999.90;;;999.90;;
17133;SDS011;8682;52.120;5.252;2022-07-23T10:04:11;1999.90;;;999.90;;
17133;SDS011;8682;52.120;5.252;2022-07-23T10:06:38;1999.90;;;999.90;;
17133;SDS011;8682;52.120;5.252;2022-07-23T10:09:06;1999.90;;;999.90;;
17133;SDS011;8682;52.120;5.252;2022-07-23T10:11:35;1999.90;;;999.90;;
17133;SDS011;8682;52.120;5.252;2022-07-23T10:14:02;1999.90;;;999.90;;
17133;SDS011;8682;52.120;5.252;2022-07-23T10:16:30;1999.90;;;999.90;;
17133;SDS011;8682;52.120;5.252;2022-07-23T10:18:57;1999.90;;;999.90;;
17133;SDS011;8682;52.120;5.252;2022-07-23T10:21:38;1999.90;;;999.90;;
17133;SDS011;8682;52.120;5.252;2022-07-23T10:24:10;1999.90;;;999.90;;
17133;SDS011;8682;52.120;5.252;2022-07-23T10:26:43;1999.90;;;999.90;;
17133;SDS011;8682;52.120;5.252;2022-07-23T10:29:18;1999.90;;;999.90;;
17133;SDS011;8682;52.120;5.252;2022-07-23T10:31:50;1999.90;;;999.90;;
17133;SDS011;8682;52.120;5.252;2022-07-23T10:34:20;1999.90;;;999.90;;
17133;SDS011;8682;52.120;5.252;2022-07-23T10:36:49;1999.90;;;999.90;;
17133;SDS011;8682;52.120;5.252;2022-07-23T10:39:18;1999.90;;;999.90;;
17133;SDS011;8682;52.120;5.252;2022-07-23T10:41:47;1999.90;;;999.90;;
17133;SDS011;8682;52.120;5.252;2022-07-23T10:44:15;1999.90;;;999.90;;
17133;SDS011;8682;52.120;5.252;2022-07-23T10:49:42;1999.90;;;999.90;;
17133;SDS011;8682;52.120;5.252;2022-07-23T10:52:20;1999.90;;;999.90;;
17133;SDS011;8682;52.120;5.252;2022-07-23T10:54:49;1999.90;;;999.90;;
17133;SDS011;8682;52.120;5.252;2022-07-23T10:57:18;1999.90;;;999.90;;
17133;SDS011;8682;52.120;5.252;2022-07-23T11:02:32;1999.90;;;999.90;;
17133;SDS011;8682;52.120;5.252;2022-07-23T11:05:00;1999.90;;;999.90;;
17133;SDS011;8682;52.120;5.252;2022-07-23T11:07:27;1999.90;;;999.90;;
17133;SDS011;8682;52.120;5.252;2022-07-23T11:09:55;1999.90;;;999.90;;
17133;SDS011;8682;52.120;5.252;2022-07-23T11:12:33;1999.90;;;999.90;;
17133;SDS011;8682;52.120;5.252;2022-07-23T11:15:02;1999.90;;;999.90;;
17133;SDS011;8682;52.120;5.252;2022-07-23T11:17:29;1999.90;;;999.90;;
17133;SDS011;8682;52.120;5.252;2022-07-23T11:20:12;1999.90;;;999.90;;
17133;SDS011;8682;52.120;5.252;2022-07-23T11:22:46;1999.90;;;999.90;;
17133;SDS011;8682;52.120;5.252;2022-07-23T11:25:13;1999.90;;;999.90;;
17133;SDS011;8682;52.120;5.252;2022-07-23T11:27:43;1999.90;;;999.90;;
17133;SDS011;8682;52.120;5.252;2022-07-23T11:30:11;1999.90;;;999.90;;
17133;SDS011;8682;52.120;5.252;2022-07-23T11:33:16;1999.90;;;999.90;;
17133;SDS011;8682;52.120;5.252;2022-07-23T11:35:44;1999.90;;;999.90;;
17133;SDS011;8682;52.120;5.252;2022-07-23T11:38:12;1999.90;;;999.90;;
17133;SDS011;8682;52.120;5.252;2022-07-23T11:40:41;1999.90;;;954.90;;
17133;SDS011;8682;52.120;5.252;2022-07-23T11:43:10;1838.60;;;833.08;;
17133;SDS011;8682;52.120;5.252;2022-07-23T11:45:38;1999.90;;;999.90;;
17133;SDS011;8682;52.120;5.252;2022-07-23T11:48:06;1999.90;;;999.90;;
17133;SDS011;8682;52.120;5.252;2022-07-23T11:50:34;1584.03;;;378.33;;
17133;SDS011;8682;52.120;5.252;2022-07-23T11:53:01;1999.90;;;999.90;;
17133;SDS011;8682;52.120;5.252;2022-07-23T11:55:29;1999.90;;;976.95;;
17133;SDS011;8682;52.120;5.252;2022-07-23T11:57:56;1999.90;;;999.90;;
17133;SDS011;8682;52.120;5.252;2022-07-23T12:00:25;1999.90;;;999.90;;
17133;SDS011;8682;52.120;5.252;2022-07-23T12:02:53;1999.90;;;999.90;;
17133;SDS011;8682;52.120;5.252;2022-07-23T12:05:24;1999.90;;;999.90;;
17133;SDS011;8682;52.120;5.252;2022-07-23T12:07:52;1971.80;;;837.20;;
17133;SDS011;8682;52.120;5.252;2022-07-23T12:10:21;1999.90;;;999.90;;
17133;SDS011;8682;52.120;5.252;2022-07-23T12:12:49;1999.90;;;999.90;;
17133;SDS011;8682;52.120;5.252;2022-07-23T12:15:17;1999.90;;;999.90;;
17133;SDS011;8682;52.120;5.252;2022-07-23T12:17:47;1999.90;;;999.90;;
17133;SDS011;8682;52.120;5.252;2022-07-23T12:20:15;1999.90;;;999.90;;
17133;SDS011;8682;52.120;5.252;2022-07-23T12:22:44;1999.90;;;669.05;;
17133;SDS011;8682;52.120;5.252;2022-07-23T12:25:12;1999.90;;;999.90;;
17133;SDS011;8682;52.120;5.252;2022-07-23T12:27:41;1999.90;;;999.90;;
17133;SDS011;8682;52.120;5.252;2022-07-23T12:30:23;1999.90;;;999.90;;
17133;SDS011;8682;52.120;5.252;2022-07-23T12:32:53;1999.90;;;999.90;;
17133;SDS011;8682;52.120;5.252;2022-07-23T12:35:20;1999.90;;;904.05;;
17133;SDS011;8682;52.120;5.252;2022-07-23T12:37:48;1999.90;;;999.90;;
17133;SDS011;8682;52.120;5.252;2022-07-23T12:43:03;1999.90;;;999.90;;
17133;SDS011;8682;52.120;5.252;2022-07-23T12:45:42;1999.90;;;999.90;;
17133;SDS011;8682;52.120;5.252;2022-07-23T12:48:17;1999.90;;;999.90;;
17133;SDS011;8682;52.120;5.252;2022-07-23T12:50:47;1999.90;;;999.90;;
17133;SDS011;8682;52.120;5.252;2022-07-23T12:53:16;1999.90;;;999.90;;
17133;SDS011;8682;52.120;5.252;2022-07-23T12:55:43;1999.90;;;999.90;;
17133;SDS011;8682;52.120;5.252;2022-07-23T12:58:11;1999.90;;;999.90;;
17133;SDS011;8682;52.120;5.252;2022-07-23T13:01:00;1999.90;;;999.90;;
17133;SDS011;8682;52.120;5.252;2022-07-23T13:03:30;1999.90;;;999.90;;
17133;SDS011;8682;52.120;5.252;2022-07-23T13:05:58;1999.90;;;999.90;;
17133;SDS011;8682;52.120;5.252;2022-07-23T13:08:27;1999.90;;;999.90;;
17133;SDS011;8682;52.120;5.252;2022-07-23T13:10:54;1999.90;;;999.90;;
17133;SDS011;8682;52.120;5.252;2022-07-23T13:13:22;1999.90;;;999.90;;
17133;SDS011;8682;52.120;5.252;2022-07-23T13:15:49;1999.90;;;999.90;;
17133;SDS011;8682;52.120;5.252;2022-07-23T13:18:16;1999.90;;;999.90;;
17133;SDS011;8682;52.120;5.252;2022-07-23T13:20:45;1999.90;;;999.90;;
17133;SDS011;8682;52.120;5.252;2022-07-23T13:23:13;1999.90;;;999.90;;
17133;SDS011;8682;52.120;5.252;2022-07-23T13:25:40;1999.90;;;999.90;;
17133;SDS011;8682;52.120;5.252;2022-07-23T13:28:07;1999.90;;;999.90;;
17133;SDS011;8682;52.120;5.252;2022-07-23T13:30:34;1999.90;;;999.90;;
17133;SDS011;8682;52.120;5.252;2022-07-23T13:33:02;1999.90;;;999.90;;
17133;SDS011;8682;52.120;5.252;2022-07-23T13:35:30;1999.90;;;999.90;;
17133;SDS011;8682;52.120;5.252;2022-07-23T13:37:58;1999.90;;;978.53;;
17133;SDS011;8682;52.120;5.252;2022-07-23T13:40:25;1999.90;;;999.90;;
17133;SDS011;8682;52.120;5.252;2022-07-23T13:42:52;1999.90;;;999.90;;
17133;SDS011;8682;52.120;5.252;2022-07-23T13:45:20;1999.90;;;999.90;;
17133;SDS011;8682;52.120;5.252;2022-07-23T13:47:47;1999.90;;;999.90;;
17133;SDS011;8682;52.120;5.252;2022-07-23T13:50:14;1999.90;;;637.70;;
17133;SDS011;8682;52.120;5.252;2022-07-23T13:52:42;1999.90;;;999.90;;
17133;SDS011;8682;52.120;5.252;2022-07-23T13:55:10;1999.90;;;999.90;;
17133;SDS011;8682;52.120;5.252;2022-07-23T13:57:37;1999.90;;;924.97;;
17133;SDS011;8682;52.120;5.252;2022-07-23T14:00:06;1999.90;;;999.90;;
17133;SDS011;8682;52.120;5.252;2022-07-23T14:02:36;1999.90;;;597.50;;
17133;SDS011;8682;52.120;5.252;2022-07-23T14:05:03;1999.90;;;824.40;;
17133;SDS011;8682;52.120;5.252;2022-07-23T14:07:31;1999.90;;;999.90;;
17133;SDS011;8682;52.120;5.252;2022-07-23T14:09:58;1999.90;;;999.90;;
17133;SDS011;8682;52.120;5.252;2022-07-23T14:12:26;1999.90;;;774.72;;
17133;SDS011;8682;52.120;5.252;2022-07-23T14:14:53;1999.90;;;999.90;;
17133;SDS011;8682;52.120;5.252;2022-07-23T14:17:21;1999.90;;;999.90;;
17133;SDS011;8682;52.120;5.252;2022-07-23T14:19:48;1999.90;;;515.60;;